Time;durP1;ratioP1;P1;durP2;ratioP2;P2;SDS_P1;SDS_P2;PMS_P1;PMS_P2;Temp;Humidity;BMP_temperature;BMP_pressure;BME280_temperature;BME280_humidity;BME280_pressure;Samples;Min_cycle;Max_cycle;Signal;HPM_P1;HPM_P2
2021/12/26 00:01:08;;;;;;;5.20;2.55;;;;;;;-4.82;77.31;101003.69;5055761;28;20162;-79
2021/12/26 00:03:34;;;;;;;7.40;2.97;;;;;;;-4.81;77.93;101010.59;5055103;28;20029;-81
2021/12/26 00:06:06;;;;;;;6.63;2.65;;;;;;;-4.81;77.61;101004.50;5055743;28;20401;-80
2021/12/26 00:08:32;;;;;;;;;;;;;;;-4.84;76.80;101007.19;5054401;28;20510;-80
2021/12/26 00:10:57;;;;;;;7.70;2.85;;;;;;;-4.90;77.20;101009.94;5054629;28;20006;-81
2021/12/26 00:13:23;;;;;;;4.15;2.55;;;;;;;-5.04;77.01;101015.47;5054136;28;20028;-84
2021/12/26 00:15:48;;;;;;;5.90;2.60;;;;;;;-5.17;77.29;101013.13;5055716;28;20374;-81
2021/12/26 00:18:14;;;;;;;3.17;2.28;;;;;;;-5.29;77.27;101005.63;5055494;28;20481;-81
2021/12/26 00:20:40;;;;;;;5.00;3.00;;;;;;;-5.40;77.52;101005.84;5055038;28;20025;-81
2021/12/26 00:23:06;;;;;;;5.63;2.75;;;;;;;-5.46;77.99;101012.91;5055136;28;20079;-81
2021/12/26 00:25:33;;;;;;;4.00;2.58;;;;;;;-5.53;78.38;101012.19;5054725;28;20040;-82
2021/12/26 00:27:59;;;;;;;4.22;2.45;;;;;;;-5.61;79.08;101017.53;5055380;28;20064;-81
2021/12/26 00:30:25;;;;;;;5.32;2.85;;;;;;;-5.69;79.86;101012.53;5054784;28;20040;-83
2021/12/26 00:32:50;;;;;;;5.03;2.67;;;;;;;-5.76;79.91;101007.47;5055263;28;20029;-80
2021/12/26 00:35:18;;;;;;;5.07;3.00;;;;;;;-5.81;80.50;101012.75;5053874;28;20033;-80
2021/12/26 00:37:44;;;;;;;6.75;2.67;;;;;;;-5.86;79.94;101009.41;5054721;28;20037;-81
2021/12/26 00:40:12;;;;;;;4.57;2.75;;;;;;;-5.95;80.19;101009.59;5054710;28;20032;-81
2021/12/26 00:42:37;;;;;;;5.30;2.80;;;;;;;-6.05;80.83;101004.59;5054190;28;20079;-80
2021/12/26 00:45:05;;;;;;;5.18;2.80;;;;;;;-6.14;81.16;101001.34;5053611;28;20029;-81
2021/12/26 00:47:32;;;;;;;4.05;2.78;;;;;;;-6.24;81.76;100998.94;5053298;28;20087;-81
2021/12/26 00:49:58;;;;;;;4.10;2.80;;;;;;;-6.33;82.11;100999.06;5053849;28;20036;-81
2021/12/26 00:52:23;;;;;;;5.50;2.75;;;;;;;-6.40;82.00;101000.94;5053406;28;20041;-81
2021/12/26 00:54:48;;;;;;;4.40;2.63;;;;;;;-6.46;82.27;101008.81;5052856;28;20044;-81
2021/12/26 00:57:14;;;;;;;5.22;2.95;;;;;;;-6.52;82.41;101002.88;5054529;28;20044;-81
2021/12/26 00:59:39;;;;;;;5.63;2.67;;;;;;;-6.57;82.04;100992.59;5054225;28;20119;-81
2021/12/26 01:02:05;;;;;;;5.03;3.20;;;;;;;-6.61;82.50;100994.41;5054512;28;20036;-81
2021/12/26 01:04:30;;;;;;;8.63;2.83;;;;;;;-6.65;82.73;100987.56;5054243;28;20485;-84
2021/12/26 01:06:56;;;;;;;7.20;2.72;;;;;;;-6.67;82.55;100994.50;5054604;28;20031;-81
2021/12/26 01:09:26;;;;;;;6.88;3.03;;;;;;;-6.69;82.91;100990.22;5054547;28;20039;-81
2021/12/26 01:11:55;;;;;;;5.18;2.63;;;;;;;-6.70;83.16;100984.19;5053958;28;20045;-81
2021/12/26 01:14:26;;;;;;;4.75;2.75;;;;;;;-6.69;83.56;100998.00;5053256;28;20390;-81
2021/12/26 01:17:02;;;;;;;3.90;2.65;;;;;;;-6.74;83.81;100995.47;5053908;28;20040;-81
2021/12/26 01:19:34;;;;;;;4.28;2.70;;;;;;;-6.76;83.95;101007.59;5054283;28;20053;-81
2021/12/26 01:21:59;;;;;;;;;;;;;;;-6.78;84.48;101006.75;5054659;28;20025;-81
2021/12/26 01:24:25;;;;;;;5.63;2.45;;;;;;;-6.83;84.34;101000.81;5054300;28;19912;-81
2021/12/26 01:26:50;;;;;;;4.00;2.47;;;;;;;-6.86;84.83;100996.53;5054971;28;20097;-82
2021/12/26 01:29:15;;;;;;;3.92;2.55;;;;;;;-6.85;84.94;100989.59;5063401;28;20036;-80
2021/12/26 01:31:41;;;;;;;4.30;2.70;;;;;;;-6.88;85.42;100980.19;5057362;28;20061;-82
2021/12/26 01:34:07;;;;;;;6.13;2.63;;;;;;;-6.89;85.19;100983.63;5053814;28;20033;-81
2021/12/26 01:36:34;;;;;;;6.97;2.90;;;;;;;-6.93;85.07;100979.38;5053627;28;20465;-83
2021/12/26 01:39:01;;;;;;;5.15;2.85;;;;;;;-6.96;85.54;100984.63;5053503;28;20040;-81
2021/12/26 01:41:28;;;;;;;4.43;3.00;;;;;;;-6.97;85.91;100982.88;5053819;28;20037;-82
2021/12/26 01:43:57;;;;;;;5.65;2.80;;;;;;;-6.98;86.25;100982.06;5051882;28;20044;-81
2021/12/26 01:46:26;;;;;;;5.57;2.88;;;;;;;-6.98;86.13;100987.22;5053326;28;20077;-82
2021/12/26 01:49:05;;;;;;;5.82;2.78;;;;;;;-6.97;86.25;100986.34;5053231;28;20094;-81
2021/12/26 01:51:30;;;;;;;4.97;2.85;;;;;;;-6.97;86.21;100982.88;5053378;28;20074;-82
2021/12/26 01:53:57;;;;;;;6.55;2.97;;;;;;;-6.99;85.92;100977.75;5052270;28;20053;-81
2021/12/26 01:56:23;;;;;;;3.40;2.50;;;;;;;-7.00;85.63;100973.47;5052824;28;20060;-81
2021/12/26 01:58:48;;;;;;;5.45;3.00;;;;;;;-7.01;86.24;100979.50;5053747;28;20496;-82
2021/12/26 02:01:15;;;;;;;4.28;2.60;;;;;;;-6.99;86.39;100976.91;5054488;28;20119;-81
2021/12/26 02:03:41;;;;;;;4.45;2.70;;;;;;;-7.00;86.61;100976.06;5053203;28;20025;-82
2021/12/26 02:06:08;;;;;;;6.20;2.65;;;;;;;-6.97;86.50;100969.97;5053814;28;20033;-82
2021/12/26 02:08:34;;;;;;;6.50;2.90;;;;;;;-6.95;85.87;100965.63;5052503;28;20436;-81
2021/12/26 02:11:02;;;;;;;9.88;3.15;;;;;;;-6.94;86.31;100970.78;5051621;28;20032;-81
2021/12/26 02:13:29;;;;;;;4.40;2.63;;;;;;;-6.92;86.14;100963.00;5052357;28;20032;-81
2021/12/26 02:15:55;;;;;;;5.03;2.85;;;;;;;-6.91;85.59;100965.56;5052613;28;20385;-81
2021/12/26 02:18:21;;;;;;;3.13;2.60;;;;;;;-6.91;84.87;100962.97;5053052;28;20033;-81
2021/12/26 02:23:57;;;;;;;4.93;2.55;;;;;;;-6.94;85.26;100960.44;5044340;28;20113;-81
2021/12/26 02:29:06;;;;;;;3.97;2.70;;;;;;;-6.94;84.61;100963.03;5052745;28;20463;-81
2021/12/26 02:31:32;;;;;;;2.90;2.15;;;;;;;-6.91;84.06;100954.38;5051903;28;20029;-81
2021/12/26 02:33:57;;;;;;;4.82;2.92;;;;;;;-6.91;83.62;100950.03;5052323;28;20098;-81
2021/12/26 02:36:22;;;;;;;8.38;3.30;;;;;;;-6.91;84.01;100959.53;5052943;28;20036;-81
2021/12/26 02:38:48;;;;;;;5.28;3.05;;;;;;;-6.89;83.67;100950.00;5052053;28;20410;-81
2021/12/26 02:41:13;;;;;;;4.60;2.60;;;;;;;-6.86;84.07;100951.69;5052630;28;20212;-81
2021/12/26 02:43:39;;;;;;;4.20;3.03;;;;;;;-6.83;83.64;100949.06;5051323;28;20036;-81
2021/12/26 02:46:06;;;;;;;5.22;2.88;;;;;;;-6.83;83.12;100946.47;5052121;28;20634;-81
2021/12/26 02:48:37;;;;;;;6.53;2.63;;;;;;;-6.81;82.86;100942.09;5052553;28;20037;-81
2021/12/26 02:51:04;;;;;;;4.97;2.60;;;;;;;-6.81;83.37;100935.19;5052229;28;20028;-82
2021/12/26 02:53:30;;;;;;;7.13;2.50;;;;;;;-6.77;83.64;100934.25;5052991;28;20021;-80
2021/12/26 02:55:57;;;;;;;3.28;2.42;;;;;;;-6.74;83.58;100935.94;5052680;28;20041;-81
2021/12/26 02:58:23;;;;;;;5.75;2.80;;;;;;;-6.70;83.77;100929.84;5052400;28;20025;-81
2021/12/26 03:01:07;;;;;;;4.93;2.90;;;;;;;-6.67;83.05;100913.38;5052460;28;20107;-81
2021/12/26 03:03:33;;;;;;;5.30;2.67;;;;;;;-6.65;82.89;100906.47;5051910;28;20115;-81
2021/12/26 03:06:02;;;;;;;5.68;2.45;;;;;;;-6.65;83.33;100907.31;5051021;28;20120;-81
2021/12/26 03:08:28;;;;;;;3.42;2.50;;;;;;;-6.63;82.63;100909.88;5052881;28;20041;-80
2021/12/26 03:10:54;;;;;;;7.30;2.83;;;;;;;-6.62;82.56;100904.66;5051089;28;20033;-81
2021/12/26 03:13:21;;;;;;;5.72;2.67;;;;;;;-6.62;82.63;100904.66;5052546;28;20061;-81
2021/12/26 03:15:47;;;;;;;7.65;2.85;;;;;;;-6.61;82.71;100903.78;5052683;28;20040;-81
2021/12/26 03:18:12;;;;;;;5.65;2.90;;;;;;;-6.60;81.90;100907.22;5052412;28;20074;-81
2021/12/26 03:20:42;;;;;;;4.57;2.63;;;;;;;-6.63;82.25;100897.78;5052779;28;20029;-81
2021/12/26 03:23:10;;;;;;;5.88;2.40;;;;;;;-6.66;82.74;100897.84;5052556;28;20024;-81
2021/12/26 03:25:37;;;;;;;5.82;2.80;;;;;;;-6.66;82.10;100894.41;5051211;28;20035;-81
2021/12/26 03:28:05;;;;;;;3.30;2.40;;;;;;;-6.70;82.39;100897.91;5051622;28;20400;-81
2021/12/26 03:30:31;;;;;;;4.53;2.92;;;;;;;-6.71;82.21;100901.41;5060665;28;20165;-80
2021/12/26 03:32:59;;;;;;;7.70;2.55;;;;;;;-6.74;82.63;100904.91;5070809;28;20037;-81
2021/12/26 03:35:27;;;;;;;7.00;2.92;;;;;;;-6.77;83.00;100913.56;5061705;28;20110;-82
2021/12/26 03:37:53;;;;;;;5.55;2.70;;;;;;;-6.80;83.17;100920.53;5052195;28;20108;-81
2021/12/26 03:40:18;;;;;;;6.78;3.00;;;;;;;-6.83;83.19;100915.41;5052577;28;20060;-81
2021/12/26 03:42:44;;;;;;;3.42;2.50;;;;;;;-6.85;83.21;100912.84;5052405;28;20059;-81
2021/12/26 03:45:10;;;;;;;4.47;3.00;;;;;;;-6.87;83.44;100908.56;5052033;28;20040;-81
2021/12/26 03:47:37;;;;;;;4.28;2.60;;;;;;;-6.88;83.05;100917.22;5052280;28;20045;-81
2021/12/26 03:50:06;;;;;;;3.50;2.58;;;;;;;-6.92;83.41;100906.91;5051825;28;20033;-80
2021/12/26 03:52:31;;;;;;;3.90;2.58;;;;;;;-6.92;83.60;100909.50;5052002;28;20489;-81
2021/12/26 03:54:57;;;;;;;7.28;2.95;;;;;;;-6.92;83.09;100898.31;5051107;28;20098;-81
2021/12/26 03:57:22;;;;;;;4.07;2.45;;;;;;;-6.92;83.15;100898.31;5052572;28;20116;-82
2021/12/26 03:59:48;;;;;;;6.05;2.95;;;;;;;-6.92;83.29;100882.78;5052201;28;20029;-81
2021/12/26 04:02:15;;;;;;;6.78;2.53;;;;;;;-6.93;83.98;100892.25;5053675;28;20385;-81
2021/12/26 04:04:42;;;;;;;4.13;2.53;;;;;;;-6.94;84.09;100892.28;5064085;28;20555;-81
2021/12/26 04:07:08;;;;;;;5.18;2.70;;;;;;;-6.96;84.12;100899.25;5054997;28;20043;-81
2021/12/26 04:09:33;;;;;;;4.15;2.28;;;;;;;-6.97;84.74;100902.69;5052006;28;20044;-82
2021/12/26 04:11:59;;;;;;;4.72;2.40;;;;;;;-7.00;84.61;100897.56;5050556;28;20037;-82
2021/12/26 04:14:24;;;;;;;4.43;2.50;;;;;;;-7.03;84.88;100895.03;5052655;28;20116;-81
2021/12/26 04:16:50;;;;;;;6.55;2.70;;;;;;;-7.02;85.36;100902.78;5055995;28;20489;-82
2021/12/26 04:19:15;;;;;;;6.45;2.70;;;;;;;-7.04;85.22;100894.19;5053904;28;20448;-81
2021/12/26 04:21:40;;;;;;;4.05;2.83;;;;;;;-7.06;85.91;100887.34;5054331;28;20029;-82
2021/12/26 04:24:06;;;;;;;5.25;3.13;;;;;;;-7.08;85.95;100887.38;5055003;28;20123;-81
2021/12/26 04:26:33;;;;;;;5.60;2.67;;;;;;;-7.12;86.09;100878.81;5055712;28;20029;-81
2021/12/26 04:28:58;;;;;;;4.82;3.03;;;;;;;-7.12;86.54;100881.41;5055470;28;20477;-81
2021/12/26 04:31:24;;;;;;;5.28;2.83;;;;;;;-7.14;86.82;100880.56;5054055;28;20047;-81
2021/12/26 04:33:50;;;;;;;3.60;2.50;;;;;;;-7.14;86.46;100872.78;5055462;28;20041;-82
2021/12/26 04:36:17;;;;;;;8.25;2.90;;;;;;;-7.17;86.66;100877.19;5055197;28;20041;-81
2021/12/26 04:38:43;;;;;;;5.22;2.70;;;;;;;-7.19;86.91;100872.03;5055140;28;20033;-81
2021/12/26 04:41:10;;;;;;;5.63;2.88;;;;;;;-7.18;87.34;100883.22;5055012;28;20102;-81
2021/12/26 04:43:36;;;;;;;3.70;2.65;;;;;;;-7.18;87.02;100868.56;5053808;28;20101;-81
2021/12/26 04:46:07;;;;;;;4.82;2.80;;;;;;;-7.18;86.62;100875.47;5054722;28;20052;-82
2021/12/26 04:48:35;;;;;;;3.70;2.90;;;;;;;-7.20;86.98;100883.25;5054962;28;20063;-83
2021/12/26 04:51:01;;;;;;;4.10;2.50;;;;;;;-7.20;87.40;100877.22;5055185;28;20028;-80
2021/12/26 04:53:26;;;;;;;6.50;2.80;;;;;;;-7.22;87.52;100872.09;5054545;28;20048;-81
2021/12/26 04:55:52;;;;;;;4.75;2.60;;;;;;;-7.23;87.43;100872.94;5055057;28;20032;-81
2021/12/26 04:58:17;;;;;;;3.42;2.55;;;;;;;-7.23;87.52;100877.28;5054369;28;20029;-81
2021/12/26 05:00:43;;;;;;;4.05;2.55;;;;;;;-7.26;87.46;100873.84;5054823;28;20082;-81
2021/12/26 05:03:09;;;;;;;4.95;2.78;;;;;;;-7.25;88.14;100866.97;5054330;28;20359;-80
2021/12/26 05:05:35;;;;;;;4.68;2.75;;;;;;;-7.27;88.04;100868.69;5054811;28;20044;-80
2021/12/26 05:08:02;;;;;;;4.90;2.85;;;;;;;-7.30;87.99;100866.16;5053203;28;20370;-81
2021/12/26 05:10:28;;;;;;;5.03;2.95;;;;;;;-7.30;88.35;100871.34;5053152;28;20123;-81
2021/12/26 05:12:59;;;;;;;6.80;3.00;;;;;;;-7.32;88.58;100870.53;5053641;28;20033;-81
2021/12/26 05:15:25;;;;;;;5.90;2.90;;;;;;;-7.34;88.28;100867.97;5054234;28;20043;-84
2021/12/26 05:17:52;;;;;;;3.92;2.55;;;;;;;-7.36;88.42;100861.97;5054852;28;20025;-82
2021/12/26 05:20:18;;;;;;;5.45;2.90;;;;;;;-7.37;88.78;100860.25;5055280;28;20037;-81
2021/12/26 05:22:45;;;;;;;5.75;3.30;;;;;;;-7.37;88.58;100868.00;5056335;28;20188;-81
2021/12/26 05:25:10;;;;;;;6.28;2.88;;;;;;;-7.36;88.95;100863.69;5054746;28;20385;-81
2021/12/26 05:27:37;;;;;;;5.03;2.95;;;;;;;-7.37;88.73;100868.00;5056267;28;20036;-81
2021/12/26 05:30:04;;;;;;;6.03;3.10;;;;;;;-7.39;88.88;100859.41;5055473;28;20075;-82
2021/12/26 05:32:30;;;;;;;4.53;2.88;;;;;;;-7.39;88.85;100858.56;5056061;28;20029;-81
2021/12/26 05:34:55;;;;;;;4.63;2.67;;;;;;;-7.41;89.16;100856.00;5054540;28;20040;-81
2021/12/26 05:37:20;;;;;;;5.95;3.08;;;;;;;-7.42;89.07;100849.13;5054035;28;20029;-81
2021/12/26 05:39:46;;;;;;;4.95;2.70;;;;;;;-7.43;89.08;100847.44;5053097;28;20110;-81
2021/12/26 05:42:15;;;;;;;7.25;3.22;;;;;;;-7.45;88.94;100847.47;5054069;28;20051;-81
2021/12/26 05:44:44;;;;;;;5.20;2.85;;;;;;;-7.45;89.00;100846.59;5054424;28;20492;-81
2021/12/26 05:47:10;;;;;;;5.13;2.63;;;;;;;-7.48;88.94;100842.34;5052697;28;20080;-81
2021/12/26 05:49:36;;;;;;;4.25;3.08;;;;;;;-7.47;89.14;100831.09;5052726;28;20487;-82
2021/12/26 05:52:02;;;;;;;4.28;2.70;;;;;;;-7.47;89.37;100835.44;5053607;28;20044;-82
2021/12/26 05:54:28;;;;;;;5.80;3.17;;;;;;;-7.49;88.93;100832.03;5053358;28;20059;-82
2021/12/26 05:56:53;;;;;;;4.97;2.85;;;;;;;-7.50;89.56;100840.66;5053905;28;20110;-82
2021/12/26 05:59:18;;;;;;;7.00;3.53;;;;;;;-7.51;89.29;100829.47;5052367;28;20045;-82
2021/12/26 06:01:44;;;;;;;4.53;3.03;;;;;;;-7.50;89.07;100836.31;5053153;28;20499;-82
2021/12/26 06:04:09;;;;;;;4.00;2.72;;;;;;;-7.50;88.97;100831.16;5036327;28;20037;-81
2021/12/26 06:06:35;;;;;;;3.85;3.03;;;;;;;-7.49;88.81;100827.69;5053624;28;20029;-82
2021/12/26 06:09:00;;;;;;;3.92;2.78;;;;;;;-7.47;88.86;100835.44;5054493;28;20433;-82
2021/12/26 06:11:26;;;;;;;6.72;2.60;;;;;;;-7.48;88.42;100834.59;5053902;28;20539;-82
2021/12/26 06:13:51;;;;;;;4.65;2.72;;;;;;;-7.50;88.65;100838.06;5054018;28;20052;-82
2021/12/26 06:16:16;;;;;;;5.05;3.03;;;;;;;-7.50;88.53;100836.31;5052507;28;20037;-82
2021/12/26 06:18:42;;;;;;;6.72;3.28;;;;;;;-7.50;88.42;100836.31;5052579;28;20420;-82
2021/12/26 06:21:07;;;;;;;5.40;2.67;;;;;;;-7.50;88.37;100841.50;5053714;28;20116;-82
2021/12/26 06:23:32;;;;;;;5.72;3.63;;;;;;;-7.51;88.77;100841.53;5053093;28;20386;-82
2021/12/26 06:25:58;;;;;;;5.10;2.90;;;;;;;-7.52;88.59;100843.25;5053482;28;20353;-83
2021/12/26 06:28:23;;;;;;;4.30;2.80;;;;;;;-7.53;88.49;100844.13;5053387;28;20412;-82
2021/12/26 06:30:49;;;;;;;4.90;2.80;;;;;;;-7.54;88.60;100844.16;5053536;28;20029;-81
2021/12/26 06:33:14;;;;;;;4.97;3.28;;;;;;;-7.56;88.47;100840.75;5053520;28;20361;-81
2021/12/26 06:35:39;;;;;;;4.10;2.90;;;;;;;-7.57;88.75;100845.03;5052311;28;20381;-82
2021/12/26 06:38:05;;;;;;;4.05;2.58;;;;;;;-7.59;88.83;100836.47;5053165;28;20385;-81
2021/12/26 06:40:30;;;;;;;4.70;2.97;;;;;;;-7.59;88.79;100839.06;5053114;28;20135;-81
2021/12/26 06:42:55;;;;;;;6.70;3.00;;;;;;;-7.59;88.72;100828.72;5056637;28;20423;-81
2021/12/26 06:45:21;;;;;;;4.25;2.88;;;;;;;-7.60;89.03;100826.16;5061230;28;20029;-81
2021/12/26 06:47:51;;;;;;;3.97;2.80;;;;;;;-7.60;88.86;100831.34;5056303;28;20575;-81
2021/12/26 06:50:18;;;;;;;4.82;3.10;;;;;;;-7.61;89.23;100830.50;5052856;28;20033;-81
2021/12/26 06:52:43;;;;;;;5.07;3.00;;;;;;;-7.63;88.87;100827.94;5052528;28;20033;-81
2021/12/26 06:55:10;;;;;;;7.50;3.00;;;;;;;-7.63;89.24;100822.75;5052968;28;20040;-81
2021/12/26 06:57:36;;;;;;;4.82;3.20;;;;;;;-7.63;88.95;100819.31;5052430;28;20436;-81
2021/12/26 07:00:05;;;;;;;4.10;3.00;;;;;;;-7.64;88.83;100815.88;5052946;28;20064;-81
2021/12/26 07:02:31;;;;;;;4.00;2.92;;;;;;;-7.63;89.05;100814.13;5052577;28;20025;-81
2021/12/26 07:04:56;;;;;;;5.45;3.15;;;;;;;-7.62;89.27;100821.03;5053477;28;20036;-81
2021/12/26 07:07:22;;;;;;;6.75;3.83;;;;;;;-7.62;89.37;100823.59;5051954;28;20033;-81
2021/12/26 07:09:47;;;;;;;4.47;2.78;;;;;;;-7.64;89.26;100815.88;5053465;28;20120;-80
2021/12/26 07:12:13;;;;;;;5.07;2.80;;;;;;;-7.63;89.41;100824.47;5053161;28;20381;-80
2021/12/26 07:14:41;;;;;;;5.30;2.92;;;;;;;-7.65;89.56;100818.50;5062374;28;20448;-80
2021/12/26 07:17:07;;;;;;;5.38;3.25;;;;;;;-7.65;89.57;100808.16;5068796;28;20033;-81
2021/12/26 07:19:32;;;;;;;5.03;2.80;;;;;;;-7.65;89.49;100816.75;5053592;28;20090;-80
2021/12/26 07:21:57;;;;;;;4.82;2.97;;;;;;;-7.63;90.02;100814.13;5052967;28;20110;-81
2021/12/26 07:24:23;;;;;;;4.72;2.70;;;;;;;-7.62;89.66;100814.09;5052514;28;20068;-81
2021/12/26 07:26:48;;;;;;;4.07;2.75;;;;;;;-7.59;89.20;100817.53;5052648;28;20111;-82
2021/12/26 07:29:13;;;;;;;3.88;2.80;;;;;;;-7.59;89.00;100817.53;5052886;28;20470;-81
2021/12/26 07:31:39;;;;;;;4.78;2.90;;;;;;;-7.58;88.81;100821.81;5052321;28;20068;-81
2021/12/26 07:34:04;;;;;;;5.43;2.60;;;;;;;-7.58;89.26;100820.09;5052779;28;20425;-81
2021/12/26 07:36:30;;;;;;;6.05;3.38;;;;;;;-7.53;88.84;100831.22;5050835;28;20111;-81
2021/12/26 07:38:55;;;;;;;5.55;3.55;;;;;;;-7.51;88.96;100826.00;5052770;28;20057;-80
2021/12/26 07:41:21;;;;;;;9.32;2.60;;;;;;;-7.49;88.25;100825.13;5042556;28;20418;-81
2021/12/26 07:43:46;;;;;;;4.72;2.83;;;;;;;-7.45;88.28;100828.50;5061588;28;20091;-82
2021/12/26 07:46:12;;;;;;;4.45;2.25;;;;;;;-7.46;88.14;100832.81;5052984;28;20072;-81
2021/12/26 07:48:37;;;;;;;4.32;2.92;;;;;;;-7.44;88.25;100831.06;5052205;28;20048;-82
2021/12/26 07:51:05;;;;;;;6.22;2.88;;;;;;;-7.43;88.07;100826.75;5056068;28;20117;-81
2021/12/26 07:53:30;;;;;;;4.80;2.88;;;;;;;-7.40;88.55;100825.81;5056211;28;20400;-82
2021/12/26 07:55:55;;;;;;;5.20;2.70;;;;;;;-7.36;88.18;100827.50;5055960;28;20040;-82
2021/12/26 07:58:21;;;;;;;7.63;2.88;;;;;;;-7.35;88.11;100821.44;5056044;28;20059;-81
2021/12/26 08:00:46;;;;;;;4.82;3.08;;;;;;;-7.32;88.19;100827.41;5054470;28;20147;-81
2021/12/26 08:03:12;;;;;;;4.55;3.38;;;;;;;-7.29;88.39;100822.19;5056002;28;20067;-81
2021/12/26 08:05:37;;;;;;;4.78;3.20;;;;;;;-7.25;88.19;100825.59;5055672;28;20028;-82
2021/12/26 08:08:03;;;;;;;4.20;2.85;;;;;;;-7.22;87.83;100820.38;5056405;28;20037;-81
2021/12/26 08:10:28;;;;;;;5.32;2.80;;;;;;;-7.17;87.32;100823.72;5056133;28;20029;-81
2021/12/26 08:12:54;;;;;;;4.45;2.88;;;;;;;-7.13;86.90;100821.94;5056360;28;20041;-83
2021/12/26 08:15:19;;;;;;;5.18;3.00;;;;;;;-7.10;86.49;100827.06;5056494;28;20036;-82
2021/12/26 08:17:45;;;;;;;4.70;2.90;;;;;;;-7.06;86.44;100833.00;5056241;28;20033;-83
2021/12/26 08:20:11;;;;;;;4.03;2.60;;;;;;;-7.01;86.48;100829.47;5056372;28;20047;-83
2021/12/26 08:22:37;;;;;;;4.03;2.65;;;;;;;-6.97;86.21;100830.25;5054551;28;20047;-82
2021/12/26 08:25:04;;;;;;;4.05;3.10;;;;;;;-6.91;86.27;100825.00;5055517;28;20036;-82
2021/12/26 08:27:29;;;;;;;5.57;2.90;;;;;;;-6.87;86.18;100823.19;5056102;28;20111;-82
2021/12/26 08:29:55;;;;;;;4.38;2.78;;;;;;;-6.82;86.60;100818.78;5037667;28;20102;-82
2021/12/26 08:32:20;;;;;;;4.38;2.75;;;;;;;-6.80;86.27;100823.03;5056152;28;20078;-83
2021/12/26 08:34:46;;;;;;;4.35;3.03;;;;;;;-6.75;86.66;100829.00;5054140;28;20457;-83
2021/12/26 08:37:13;;;;;;;4.75;3.10;;;;;;;-6.71;86.19;100832.38;5054392;28;20114;-83
2021/12/26 08:39:41;;;;;;;4.78;3.05;;;;;;;-6.66;86.76;100832.28;5055454;28;20051;-81
2021/12/26 08:42:08;;;;;;;11.45;3.53;;;;;;;-6.61;86.73;100827.88;5055256;28;20385;-82
2021/12/26 08:44:34;;;;;;;5.90;3.10;;;;;;;-6.56;86.25;100834.66;5055234;28;20115;-81
2021/12/26 08:47:01;;;;;;;4.45;3.20;;;;;;;-6.48;86.08;100831.06;5053338;28;20508;-83
2021/12/26 08:49:27;;;;;;;4.50;3.30;;;;;;;-6.42;85.06;100833.53;5055161;28;20060;-81
2021/12/26 08:51:53;;;;;;;5.80;3.53;;;;;;;-6.33;84.47;100835.06;5053471;28;20036;-83
2021/12/26 08:54:19;;;;;;;4.13;3.00;;;;;;;-6.23;83.98;100840.03;5055114;28;20078;-82
2021/12/26 08:56:45;;;;;;;5.82;3.30;;;;;;;-6.14;83.88;100838.97;5053021;28;20065;-83
2021/12/26 08:59:10;;;;;;;6.63;3.30;;;;;;;-6.03;83.04;100831.84;5055153;28;20041;-83
2021/12/26 09:01:36;;;;;;;4.85;3.20;;;;;;;-5.92;82.56;100838.50;5054138;28;20033;-83
2021/12/26 09:04:03;;;;;;;6.13;3.30;;;;;;;-5.82;82.26;100836.53;5054722;28;20108;-82
2021/12/26 09:06:29;;;;;;;5.05;3.05;;;;;;;-5.72;82.18;100833.72;5055488;28;20041;-83
2021/12/26 09:08:54;;;;;;;9.05;4.13;;;;;;;-5.62;82.10;100828.31;5055011;28;20124;-81
2021/12/26 09:11:20;;;;;;;9.30;3.70;;;;;;;-5.53;81.28;100831.53;5055026;28;20029;-79
2021/12/26 09:13:47;;;;;;;7.35;3.65;;;;;;;-5.44;80.18;100830.44;5054184;28;20056;-79
2021/12/26 09:16:13;;;;;;;8.55;3.38;;;;;;;-5.35;80.40;100831.97;5054443;28;20496;-79
2021/12/26 09:18:39;;;;;;;4.63;3.60;;;;;;;-5.29;80.18;100829.22;5054746;28;20036;-81
2021/12/26 09:21:04;;;;;;;5.28;3.20;;;;;;;-5.22;79.87;100824.75;5053969;28;20037;-80
2021/12/26 09:23:30;;;;;;;7.13;3.35;;;;;;;-5.21;79.09;100835.09;5055795;28;20033;-82
2021/12/26 09:25:56;;;;;;;4.38;3.00;;;;;;;-5.19;80.01;100822.91;5064549;28;20036;-83
2021/12/26 09:28:22;;;;;;;5.10;3.45;;;;;;;-5.17;79.73;100825.47;5052951;28;20051;-83
2021/12/26 09:30:47;;;;;;;6.22;3.90;;;;;;;-5.17;79.96;100821.13;5052774;28;20041;-84
2021/12/26 09:33:19;;;;;;;6.00;3.38;;;;;;;-5.15;80.14;100826.28;5052866;28;20508;-83
2021/12/26 09:35:45;;;;;;;5.82;3.35;;;;;;;-5.12;80.11;100826.19;5052988;28;20037;-83
2021/12/26 09:38:10;;;;;;;6.07;3.85;;;;;;;-5.08;80.42;100833.00;5051989;28;20037;-82
2021/12/26 09:40:36;;;;;;;6.72;4.00;;;;;;;-5.03;81.01;100827.69;5052045;28;20037;-80
2021/12/26 09:43:01;;;;;;;5.72;3.40;;;;;;;-4.99;81.48;100832.75;5050547;28;20556;-81
2021/12/26 09:45:27;;;;;;;7.30;3.65;;;;;;;-4.92;81.29;100823.09;5052430;28;20036;-83
2021/12/26 09:47:52;;;;;;;5.25;3.50;;;;;;;-4.86;81.11;100814.28;5052207;28;20445;-84
2021/12/26 09:50:20;;;;;;;7.82;3.42;;;;;;;-4.82;81.38;100815.88;5052059;28;20913;-83
2021/12/26 09:52:49;;;;;;;5.32;3.58;;;;;;;-4.79;81.41;100813.25;5050108;28;20098;-83
2021/12/26 09:55:15;;;;;;;6.22;3.72;;;;;;;-4.76;81.85;100814.88;5051933;28;20047;-83
2021/12/26 09:57:41;;;;;;;6.78;3.30;;;;;;;-4.73;80.89;100804.41;5051228;28;20449;-84
2021/12/26 10:00:38;;;;;;;7.03;4.10;;;;;;;-4.72;81.29;100798.31;5049761;28;20131;-82
2021/12/26 10:03:16;;;;;;;6.07;3.83;;;;;;;-4.69;81.83;100793.88;5044957;28;20044;-83
2021/12/26 10:05:58;;;;;;;6.05;4.43;;;;;;;-4.61;81.80;100785.91;5051346;28;20060;-83
2021/12/26 10:08:23;;;;;;;5.25;3.80;;;;;;;-4.51;81.22;100794.28;5051115;28;20540;-79
2021/12/26 10:11:14;;;;;;;5.25;3.45;;;;;;;-4.37;81.02;100779.16;5050722;28;20040;-80
2021/12/26 10:13:42;;;;;;;8.00;3.80;;;;;;;-4.18;80.41;100781.19;5049028;28;20029;-81
2021/12/26 10:16:08;;;;;;;9.07;4.03;;;;;;;-4.05;80.05;100779.06;5050517;28;20504;-81
2021/12/26 10:18:39;;;;;;;5.03;3.65;;;;;;;-3.94;79.30;100779.56;5050524;28;20112;-80
2021/12/26 10:21:30;;;;;;;6.05;3.67;;;;;;;-3.80;78.97;100785.19;5048914;28;20048;-82
2021/12/26 10:24:04;;;;;;;5.53;3.70;;;;;;;-3.68;79.18;100776.16;5050687;28;20075;-81
2021/12/26 10:26:33;;;;;;;6.22;4.00;;;;;;;-3.56;79.33;100778.34;5051502;28;20067;-81
2021/12/26 10:29:19;;;;;;;6.75;3.80;;;;;;;-3.42;78.54;100764.91;5049531;28;20029;-80
2021/12/26 10:31:48;;;;;;;6.30;3.50;;;;;;;-3.30;78.71;100766.25;5049510;28;20071;-79
2021/12/26 10:34:21;;;;;;;6.18;4.07;;;;;;;-3.22;77.81;100756.41;5049476;28;20469;-81
2021/12/26 10:36:48;;;;;;;5.78;4.32;;;;;;;-3.08;77.99;100762.88;5050808;28;20021;-83
2021/12/26 10:39:18;;;;;;;5.70;3.70;;;;;;;-2.98;77.27;100758.22;5048559;28;20068;-80
2021/12/26 10:41:47;;;;;;;5.75;4.07;;;;;;;-2.94;76.43;100749.38;5050676;28;20029;-79
2021/12/26 10:44:34;;;;;;;5.38;3.78;;;;;;;-2.88;76.27;100744.81;5051568;28;20350;-84
2021/12/26 10:47:07;;;;;;;5.80;3.97;;;;;;;-2.79;76.97;100742.75;5050024;28;20052;-80
2021/12/26 10:49:36;;;;;;;6.68;4.38;;;;;;;-2.72;77.12;100745.06;5052235;28;20041;-81
2021/12/26 10:52:10;;;;;;;8.98;4.60;;;;;;;-2.64;76.91;100751.75;5050460;28;20729;-80
2021/12/26 10:54:36;;;;;;;8.40;5.22;;;;;;;-2.54;77.47;100745.31;5048881;28;20032;-79
2021/12/26 10:57:13;;;;;;;9.98;4.72;;;;;;;-2.49;76.11;100746.00;5049676;28;20074;-80
2021/12/26 10:59:43;;;;;;;6.82;4.82;;;;;;;-2.47;76.15;100741.56;5050006;28;20037;-80
2021/12/26 11:02:09;;;;;;;5.85;3.92;;;;;;;-2.39;76.14;100730.84;5050374;28;20512;-78
2021/12/26 11:04:36;;;;;;;6.68;4.05;;;;;;;-2.37;76.18;100726.44;5053524;28;20044;-79
2021/12/26 11:07:08;;;;;;;6.15;4.40;;;;;;;-2.28;76.48;100723.47;5054268;28;20048;-80
2021/12/26 11:09:35;;;;;;;6.20;4.47;;;;;;;-2.24;76.69;100729.41;5043746;28;20083;-80
2021/12/26 11:12:04;;;;;;;7.55;4.80;;;;;;;-2.22;76.46;100725.00;5049677;28;20041;-78
2021/12/26 11:14:30;;;;;;;10.40;4.80;;;;;;;-2.11;76.15;100732.38;5061625;28;20056;-78
2021/12/26 11:16:56;;;;;;;7.72;4.88;;;;;;;-2.09;76.44;100739.25;5063262;28;20057;-81
2021/12/26 11:19:45;;;;;;;8.30;4.57;;;;;;;-2.05;76.36;100722.56;5059396;28;20025;-78
2021/12/26 11:22:11;;;;;;;6.80;4.75;;;;;;;-1.96;76.49;100721.34;5052603;28;20037;-85
2021/12/26 11:24:37;;;;;;;9.20;4.80;;;;;;;-1.90;76.43;100722.84;5054954;28;20037;-82
2021/12/26 11:27:04;;;;;;;8.25;5.38;;;;;;;-1.85;76.13;100719.16;5056081;28;20104;-84
2021/12/26 11:29:30;;;;;;;10.02;5.40;;;;;;;-1.77;76.27;100714.47;5057257;28;20029;-80
2021/12/26 11:31:56;;;;;;;7.20;4.95;;;;;;;-1.70;75.85;100712.47;5057455;28;20040;-85